Terminal Aerodrome Forecast
Issued by NWS

Current Version | Previous Version | Text Only | Print | Product List | Glossary On
Versions: 1 2 3 4 5 6 7 8 9 10 11 12 13 14 15 16 17 18 19 20 21 22 23 24 25 26 27 28 29 30 31 32 33 34 35 36 37 38 39 40
000 FTUS41 KBOX 051121 TAFACK TAF KACK 051121Z 0512/0612 34012KT 2SM -SNPL BR OVC005 FM051400 36012KT 1SM -SN BR OVC010 FM051800 35013KT 3SM -SN OVC020 FM052300 33011KT P6SM OVC025 FM060300 35014KT P6SM BKN040=

USA.gov is the U.S. government's official web portal to all federal, state and local government web resources and services.